Terminal Aerodrome Forecast
Issued by NWS

Home | Current Version | Previous Version | Text Only | Print | Product List | Glossary On
Versions: 1 2 3 4 5 6 7 8 9 10 11 12
000
FTUS44 KEPZ 282300 RRA
TAFLRU
TAF
KLRU 282350Z 0100/0124 25012G20KT P6SM SCT150
     FM010200 22010KT P6SM FEW070 SCT250
     FM011800 24016KT P6SM FEW150 SCT250=

USA.gov is the U.S. government's official web portal to all federal, state and local government web resources and services.